sensor_id;sensor_type;location;lat;lon;timestamp;P1;durP1;ratioP1;P2;durP2;ratioP2
9254;SDS011;4663;49.120;9.730;2023-07-24T00:01:11;149.23;;;141.85;;
9254;SDS011;4663;49.120;9.730;2023-07-24T00:03:36;121.60;;;115.63;;
9254;SDS011;4663;49.120;9.730;2023-07-24T00:06:02;106.60;;;101.28;;
9254;SDS011;4663;49.120;9.730;2023-07-24T00:08:27;120.22;;;114.35;;
9254;SDS011;4663;49.120;9.730;2023-07-24T00:10:53;126.95;;;120.75;;
9254;SDS011;4663;49.120;9.730;2023-07-24T00:13:18;126.82;;;120.78;;
9254;SDS011;4663;49.120;9.730;2023-07-24T00:15:44;127.03;;;120.32;;
9254;SDS011;4663;49.120;9.730;2023-07-24T00:18:09;132.45;;;126.05;;
9254;SDS011;4663;49.120;9.730;2023-07-24T00:20:35;133.23;;;126.82;;
9254;SDS011;4663;49.120;9.730;2023-07-24T00:23:00;167.32;;;159.23;;
9254;SDS011;4663;49.120;9.730;2023-07-24T00:25:25;164.70;;;156.77;;
9254;SDS011;4663;49.120;9.730;2023-07-24T00:27:51;134.00;;;127.65;;
9254;SDS011;4663;49.120;9.730;2023-07-24T00:30:28;120.50;;;114.57;;
9254;SDS011;4663;49.120;9.730;2023-07-24T00:32:54;129.07;;;122.80;;
9254;SDS011;4663;49.120;9.730;2023-07-24T00:35:19;113.47;;;107.90;;
9254;SDS011;4663;49.120;9.730;2023-07-24T00:37:44;102.93;;;97.65;;
9254;SDS011;4663;49.120;9.730;2023-07-24T00:40:10;90.85;;;86.22;;
9254;SDS011;4663;49.120;9.730;2023-07-24T00:42:36;79.45;;;75.35;;
9254;SDS011;4663;49.120;9.730;2023-07-24T00:45:01;83.65;;;79.43;;
9254;SDS011;4663;49.120;9.730;2023-07-24T00:47:26;90.25;;;85.75;;
9254;SDS011;4663;49.120;9.730;2023-07-24T00:49:52;93.78;;;89.00;;
9254;SDS011;4663;49.120;9.730;2023-07-24T00:52:19;93.72;;;88.93;;
9254;SDS011;4663;49.120;9.730;2023-07-24T00:54:44;90.35;;;85.72;;
9254;SDS011;4663;49.120;9.730;2023-07-24T00:57:11;94.65;;;89.72;;
9254;SDS011;4663;49.120;9.730;2023-07-24T00:59:36;98.55;;;93.60;;
9254;SDS011;4663;49.120;9.730;2023-07-24T01:02:01;85.22;;;80.82;;
9254;SDS011;4663;49.120;9.730;2023-07-24T01:04:27;80.05;;;76.00;;
9254;SDS011;4663;49.120;9.730;2023-07-24T01:06:52;77.65;;;73.57;;
9254;SDS011;4663;49.120;9.730;2023-07-24T01:09:18;76.15;;;72.20;;
9254;SDS011;4663;49.120;9.730;2023-07-24T01:11:45;72.00;;;68.38;;
9254;SDS011;4663;49.120;9.730;2023-07-24T01:14:23;63.40;;;59.90;;
9254;SDS011;4663;49.120;9.730;2023-07-24T01:16:58;65.72;;;62.40;;
9254;SDS011;4663;49.120;9.730;2023-07-24T01:22:39;53.80;;;50.80;;
9254;SDS011;4663;49.120;9.730;2023-07-24T01:27:40;56.25;;;53.25;;
9254;SDS011;4663;49.120;9.730;2023-07-24T01:30:10;55.25;;;52.30;;
9254;SDS011;4663;49.120;9.730;2023-07-24T01:32:36;53.97;;;50.97;;
9254;SDS011;4663;49.120;9.730;2023-07-24T01:35:03;53.45;;;50.58;;
9254;SDS011;4663;49.120;9.730;2023-07-24T01:37:29;49.33;;;46.67;;
9254;SDS011;4663;49.120;9.730;2023-07-24T01:39:56;53.28;;;50.00;;
9254;SDS011;4663;49.120;9.730;2023-07-24T01:42:22;53.25;;;50.45;;
9254;SDS011;4663;49.120;9.730;2023-07-24T01:44:52;54.55;;;51.55;;
9254;SDS011;4663;49.120;9.730;2023-07-24T01:47:18;53.63;;;50.75;;
9254;SDS011;4663;49.120;9.730;2023-07-24T01:49:44;54.47;;;51.58;;
9254;SDS011;4663;49.120;9.730;2023-07-24T01:52:09;52.88;;;49.95;;
9254;SDS011;4663;49.120;9.730;2023-07-24T01:54:34;52.75;;;49.90;;
9254;SDS011;4663;49.120;9.730;2023-07-24T01:57:00;58.10;;;54.88;;
9254;SDS011;4663;49.120;9.730;2023-07-24T01:59:25;58.38;;;55.17;;
9254;SDS011;4663;49.120;9.730;2023-07-24T02:01:51;58.15;;;54.88;;
9254;SDS011;4663;49.120;9.730;2023-07-24T02:04:16;59.80;;;56.65;;
9254;SDS011;4663;49.120;9.730;2023-07-24T02:06:41;58.35;;;55.33;;
9254;SDS011;4663;49.120;9.730;2023-07-24T02:09:07;60.08;;;56.70;;
9254;SDS011;4663;49.120;9.730;2023-07-24T02:11:32;55.40;;;52.38;;
9254;SDS011;4663;49.120;9.730;2023-07-24T02:13:57;51.17;;;48.38;;
9254;SDS011;4663;49.120;9.730;2023-07-24T02:16:23;48.45;;;45.75;;
9254;SDS011;4663;49.120;9.730;2023-07-24T02:18:48;47.25;;;44.20;;
9254;SDS011;4663;49.120;9.730;2023-07-24T02:21:14;45.22;;;42.72;;
9254;SDS011;4663;49.120;9.730;2023-07-24T02:23:40;43.08;;;40.75;;
9254;SDS011;4663;49.120;9.730;2023-07-24T02:26:05;49.10;;;46.35;;
9254;SDS011;4663;49.120;9.730;2023-07-24T02:28:30;47.13;;;44.35;;
9254;SDS011;4663;49.120;9.730;2023-07-24T02:30:56;47.03;;;44.45;;
9254;SDS011;4663;49.120;9.730;2023-07-24T02:33:22;48.05;;;45.25;;
9254;SDS011;4663;49.120;9.730;2023-07-24T02:35:48;49.47;;;46.88;;
9254;SDS011;4663;49.120;9.730;2023-07-24T02:38:16;51.65;;;48.88;;
9254;SDS011;4663;49.120;9.730;2023-07-24T02:40:41;54.22;;;51.17;;
9254;SDS011;4663;49.120;9.730;2023-07-24T02:43:07;52.75;;;49.75;;
9254;SDS011;4663;49.120;9.730;2023-07-24T02:45:35;57.92;;;54.90;;
9254;SDS011;4663;49.120;9.730;2023-07-24T02:48:02;61.38;;;58.05;;
9254;SDS011;4663;49.120;9.730;2023-07-24T02:50:27;60.75;;;57.60;;
9254;SDS011;4663;49.120;9.730;2023-07-24T02:52:53;66.15;;;62.78;;
9254;SDS011;4663;49.120;9.730;2023-07-24T02:55:18;62.45;;;59.15;;
9254;SDS011;4663;49.120;9.730;2023-07-24T02:57:44;67.30;;;63.70;;
9254;SDS011;4663;49.120;9.730;2023-07-24T03:00:09;66.05;;;62.58;;
9254;SDS011;4663;49.120;9.730;2023-07-24T03:02:35;70.13;;;66.45;;
9254;SDS011;4663;49.120;9.730;2023-07-24T03:05:00;72.07;;;68.45;;
9254;SDS011;4663;49.120;9.730;2023-07-24T03:07:26;77.60;;;73.47;;
9254;SDS011;4663;49.120;9.730;2023-07-24T03:09:51;74.22;;;70.47;;
9254;SDS011;4663;49.120;9.730;2023-07-24T03:12:17;80.20;;;76.13;;
9254;SDS011;4663;49.120;9.730;2023-07-24T03:14:42;78.53;;;74.28;;
9254;SDS011;4663;49.120;9.730;2023-07-24T03:17:07;80.55;;;76.32;;
9254;SDS011;4663;49.120;9.730;2023-07-24T03:19:33;78.97;;;75.00;;
9254;SDS011;4663;49.120;9.730;2023-07-24T03:21:58;78.20;;;74.22;;
9254;SDS011;4663;49.120;9.730;2023-07-24T03:24:24;78.32;;;74.35;;
9254;SDS011;4663;49.120;9.730;2023-07-24T03:26:50;77.65;;;73.53;;
9254;SDS011;4663;49.120;9.730;2023-07-24T03:29:15;78.72;;;74.78;;
9254;SDS011;4663;49.120;9.730;2023-07-24T03:31:41;80.38;;;76.32;;
9254;SDS011;4663;49.120;9.730;2023-07-24T03:34:06;82.80;;;78.60;;
9254;SDS011;4663;49.120;9.730;2023-07-24T03:36:32;78.30;;;74.05;;
9254;SDS011;4663;49.120;9.730;2023-07-24T03:38:57;74.63;;;70.75;;
9254;SDS011;4663;49.120;9.730;2023-07-24T03:41:22;70.75;;;67.07;;
9254;SDS011;4663;49.120;9.730;2023-07-24T03:43:48;67.88;;;64.38;;
9254;SDS011;4663;49.120;9.730;2023-07-24T03:46:13;60.17;;;56.90;;
9254;SDS011;4663;49.120;9.730;2023-07-24T03:48:38;50.53;;;47.67;;
9254;SDS011;4663;49.120;9.730;2023-07-24T03:51:04;50.70;;;47.90;;
9254;SDS011;4663;49.120;9.730;2023-07-24T03:53:29;48.63;;;45.85;;
9254;SDS011;4663;49.120;9.730;2023-07-24T03:55:55;49.58;;;46.83;;
9254;SDS011;4663;49.120;9.730;2023-07-24T03:58:20;45.40;;;42.97;;
9254;SDS011;4663;49.120;9.730;2023-07-24T04:00:45;50.20;;;47.35;;
9254;SDS011;4663;49.120;9.730;2023-07-24T04:03:11;56.90;;;53.90;;
9254;SDS011;4663;49.120;9.730;2023-07-24T04:05:37;61.50;;;58.28;;
9254;SDS011;4663;49.120;9.730;2023-07-24T04:08:02;71.43;;;67.78;;
9254;SDS011;4663;49.120;9.730;2023-07-24T04:10:28;82.28;;;78.10;;
9254;SDS011;4663;49.120;9.730;2023-07-24T04:12:55;75.95;;;72.15;;
9254;SDS011;4663;49.120;9.730;2023-07-24T04:15:21;79.90;;;75.88;;
9254;SDS011;4663;49.120;9.730;2023-07-24T04:17:47;80.60;;;76.45;;
9254;SDS011;4663;49.120;9.730;2023-07-24T04:20:12;80.70;;;76.60;;
9254;SDS011;4663;49.120;9.730;2023-07-24T04:22:38;80.47;;;76.32;;
9254;SDS011;4663;49.120;9.730;2023-07-24T04:25:03;70.97;;;67.22;;
9254;SDS011;4663;49.120;9.730;2023-07-24T04:27:29;60.38;;;57.17;;
9254;SDS011;4663;49.120;9.730;2023-07-24T04:29:54;40.40;;;38.10;;
9254;SDS011;4663;49.120;9.730;2023-07-24T04:32:19;44.80;;;42.28;;
9254;SDS011;4663;49.120;9.730;2023-07-24T04:34:45;48.28;;;45.35;;
9254;SDS011;4663;49.120;9.730;2023-07-24T04:37:10;42.38;;;39.88;;
9254;SDS011;4663;49.120;9.730;2023-07-24T04:39:38;41.88;;;39.47;;
9254;SDS011;4663;49.120;9.730;2023-07-24T04:42:03;44.85;;;42.30;;
9254;SDS011;4663;49.120;9.730;2023-07-24T04:44:29;41.40;;;39.05;;
9254;SDS011;4663;49.120;9.730;2023-07-24T04:46:55;36.80;;;34.67;;
9254;SDS011;4663;49.120;9.730;2023-07-24T04:49:20;31.75;;;29.83;;
9254;SDS011;4663;49.120;9.730;2023-07-24T04:51:46;31.35;;;29.45;;
9254;SDS011;4663;49.120;9.730;2023-07-24T04:54:11;31.63;;;29.73;;
9254;SDS011;4663;49.120;9.730;2023-07-24T04:56:36;31.42;;;29.58;;
9254;SDS011;4663;49.120;9.730;2023-07-24T04:59:02;30.90;;;29.00;;
9254;SDS011;4663;49.120;9.730;2023-07-24T05:01:27;34.70;;;32.42;;
9254;SDS011;4663;49.120;9.730;2023-07-24T05:03:53;31.65;;;29.73;;
9254;SDS011;4663;49.120;9.730;2023-07-24T05:06:18;33.70;;;31.80;;
9254;SDS011;4663;49.120;9.730;2023-07-24T05:08:43;34.22;;;32.15;;
9254;SDS011;4663;49.120;9.730;2023-07-24T05:11:09;31.00;;;29.08;;
9254;SDS011;4663;49.120;9.730;2023-07-24T05:13:34;29.15;;;27.40;;
9254;SDS011;4663;49.120;9.730;2023-07-24T05:15:59;33.40;;;31.30;;
9254;SDS011;4663;49.120;9.730;2023-07-24T05:18:25;33.60;;;31.48;;
9254;SDS011;4663;49.120;9.730;2023-07-24T05:20:50;31.25;;;29.35;;
9254;SDS011;4663;49.120;9.730;2023-07-24T05:23:18;28.83;;;27.10;;
9254;SDS011;4663;49.120;9.730;2023-07-24T05:25:44;31.20;;;29.30;;
9254;SDS011;4663;49.120;9.730;2023-07-24T05:28:09;34.00;;;32.00;;
9254;SDS011;4663;49.120;9.730;2023-07-24T05:30:35;36.90;;;34.88;;
9254;SDS011;4663;49.120;9.730;2023-07-24T05:33:01;45.03;;;42.38;;
9254;SDS011;4663;49.120;9.730;2023-07-24T05:35:26;48.63;;;45.97;;
9254;SDS011;4663;49.120;9.730;2023-07-24T05:37:52;50.90;;;48.08;;
9254;SDS011;4663;49.120;9.730;2023-07-24T05:40:17;52.33;;;49.50;;
9254;SDS011;4663;49.120;9.730;2023-07-24T05:42:43;48.28;;;45.33;;
9254;SDS011;4663;49.120;9.730;2023-07-24T05:45:08;50.40;;;47.47;;
9254;SDS011;4663;49.120;9.730;2023-07-24T05:47:36;50.38;;;47.53;;
9254;SDS011;4663;49.120;9.730;2023-07-24T05:50:01;47.92;;;45.17;;
9254;SDS011;4663;49.120;9.730;2023-07-24T05:52:27;38.53;;;36.33;;
9254;SDS011;4663;49.120;9.730;2023-07-24T05:54:53;37.15;;;34.95;;
9254;SDS011;4663;49.120;9.730;2023-07-24T05:57:19;36.85;;;34.63;;
9254;SDS011;4663;49.120;9.730;2023-07-24T05:59:44;37.42;;;35.33;;
9254;SDS011;4663;49.120;9.730;2023-07-24T06:02:10;35.25;;;33.17;;
9254;SDS011;4663;49.120;9.730;2023-07-24T06:04:35;37.65;;;35.40;;
9254;SDS011;4663;49.120;9.730;2023-07-24T06:07:01;38.00;;;35.80;;
9254;SDS011;4663;49.120;9.730;2023-07-24T06:09:26;35.25;;;32.97;;
9254;SDS011;4663;49.120;9.730;2023-07-24T06:11:52;38.97;;;36.53;;
9254;SDS011;4663;49.120;9.730;2023-07-24T06:14:17;120.50;;;114.53;;
9254;SDS011;4663;49.120;9.730;2023-07-24T06:16:43;40.75;;;38.33;;
9254;SDS011;4663;49.120;9.730;2023-07-24T06:19:08;41.58;;;39.28;;
9254;SDS011;4663;49.120;9.730;2023-07-24T06:21:33;44.05;;;41.45;;
9254;SDS011;4663;49.120;9.730;2023-07-24T06:23:59;44.38;;;41.83;;
9254;SDS011;4663;49.120;9.730;2023-07-24T06:26:24;44.25;;;41.78;;
9254;SDS011;4663;49.120;9.730;2023-07-24T06:28:49;46.75;;;44.15;;
9254;SDS011;4663;49.120;9.730;2023-07-24T06:31:15;45.17;;;42.67;;
9254;SDS011;4663;49.120;9.730;2023-07-24T06:33:40;44.70;;;42.13;;
9254;SDS011;4663;49.120;9.730;2023-07-24T06:36:09;43.50;;;41.10;;
9254;SDS011;4663;49.120;9.730;2023-07-24T06:38:35;45.47;;;42.83;;
9254;SDS011;4663;49.120;9.730;2023-07-24T06:41:00;44.38;;;41.90;;
9254;SDS011;4663;49.120;9.730;2023-07-24T06:43:26;41.80;;;39.40;;
9254;SDS011;4663;49.120;9.730;2023-07-24T06:45:52;43.00;;;40.50;;
9254;SDS011;4663;49.120;9.730;2023-07-24T06:48:18;41.90;;;39.58;;
9254;SDS011;4663;49.120;9.730;2023-07-24T06:50:43;40.72;;;38.42;;
9254;SDS011;4663;49.120;9.730;2023-07-24T06:53:09;42.10;;;39.75;;
9254;SDS011;4663;49.120;9.730;2023-07-24T06:55:34;41.67;;;39.38;;
9254;SDS011;4663;49.120;9.730;2023-07-24T06:57:59;39.20;;;37.03;;
9254;SDS011;4663;49.120;9.730;2023-07-24T07:00:25;39.80;;;37.53;;
9254;SDS011;4663;49.120;9.730;2023-07-24T07:02:50;40.67;;;38.30;;
9254;SDS011;4663;49.120;9.730;2023-07-24T07:05:15;40.50;;;38.10;;
9254;SDS011;4663;49.120;9.730;2023-07-24T07:07:41;41.85;;;39.55;;
9254;SDS011;4663;49.120;9.730;2023-07-24T07:10:07;49.65;;;46.60;;
9254;SDS011;4663;49.120;9.730;2023-07-24T07:12:32;36.78;;;34.58;;
9254;SDS011;4663;49.120;9.730;2023-07-24T07:14:58;37.45;;;35.25;;
9254;SDS011;4663;49.120;9.730;2023-07-24T07:17:23;37.88;;;35.58;;
9254;SDS011;4663;49.120;9.730;2023-07-24T07:19:48;35.88;;;33.70;;
9254;SDS011;4663;49.120;9.730;2023-07-24T07:22:14;34.53;;;32.17;;
9254;SDS011;4663;49.120;9.730;2023-07-24T07:24:39;36.78;;;34.58;;
9254;SDS011;4663;49.120;9.730;2023-07-24T07:27:05;34.15;;;32.13;;
9254;SDS011;4663;49.120;9.730;2023-07-24T07:29:30;35.97;;;33.55;;
9254;SDS011;4663;49.120;9.730;2023-07-24T07:31:56;35.80;;;33.75;;
9254;SDS011;4663;49.120;9.730;2023-07-24T07:34:22;35.22;;;33.20;;
9254;SDS011;4663;49.120;9.730;2023-07-24T07:36:47;36.33;;;34.03;;
9254;SDS011;4663;49.120;9.730;2023-07-24T07:39:13;31.50;;;29.58;;
9254;SDS011;4663;49.120;9.730;2023-07-24T07:41:38;34.42;;;32.05;;
9254;SDS011;4663;49.120;9.730;2023-07-24T07:44:04;35.95;;;33.90;;
9254;SDS011;4663;49.120;9.730;2023-07-24T07:46:30;34.95;;;33.03;;
9254;SDS011;4663;49.120;9.730;2023-07-24T07:48:55;34.00;;;31.98;;
9254;SDS011;4663;49.120;9.730;2023-07-24T07:51:20;36.50;;;34.42;;
9254;SDS011;4663;49.120;9.730;2023-07-24T07:53:46;34.10;;;32.10;;
9254;SDS011;4663;49.120;9.730;2023-07-24T07:56:11;36.97;;;34.67;;
9254;SDS011;4663;49.120;9.730;2023-07-24T07:58:37;35.47;;;33.17;;
9254;SDS011;4663;49.120;9.730;2023-07-24T08:01:05;34.97;;;32.92;;
9254;SDS011;4663;49.120;9.730;2023-07-24T08:03:31;35.72;;;33.63;;
9254;SDS011;4663;49.120;9.730;2023-07-24T08:05:58;36.47;;;34.38;;
9254;SDS011;4663;49.120;9.730;2023-07-24T08:08:23;40.42;;;38.03;;
9254;SDS011;4663;49.120;9.730;2023-07-24T08:10:49;40.85;;;38.35;;
9254;SDS011;4663;49.120;9.730;2023-07-24T08:13:14;38.58;;;36.35;;
9254;SDS011;4663;49.120;9.730;2023-07-24T08:15:40;39.72;;;37.42;;
9254;SDS011;4663;49.120;9.730;2023-07-24T08:18:06;46.67;;;44.05;;
9254;SDS011;4663;49.120;9.730;2023-07-24T08:20:35;46.28;;;43.55;;
9254;SDS011;4663;49.120;9.730;2023-07-24T08:23:01;42.50;;;40.15;;
9254;SDS011;4663;49.120;9.730;2023-07-24T08:25:27;34.50;;;32.40;;
9254;SDS011;4663;49.120;9.730;2023-07-24T08:27:52;31.25;;;29.35;;
9254;SDS011;4663;49.120;9.730;2023-07-24T08:30:18;31.85;;;29.85;;
9254;SDS011;4663;49.120;9.730;2023-07-24T08:32:43;32.00;;;30.13;;
9254;SDS011;4663;49.120;9.730;2023-07-24T08:35:09;33.50;;;31.42;;
9254;SDS011;4663;49.120;9.730;2023-07-24T08:37:34;34.25;;;32.05;;
9254;SDS011;4663;49.120;9.730;2023-07-24T08:40:00;39.53;;;37.25;;
9254;SDS011;4663;49.120;9.730;2023-07-24T08:42:25;47.13;;;44.47;;
9254;SDS011;4663;49.120;9.730;2023-07-24T08:44:51;48.00;;;45.10;;
9254;SDS011;4663;49.120;9.730;2023-07-24T08:47:18;50.85;;;48.00;;
9254;SDS011;4663;49.120;9.730;2023-07-24T08:49:44;52.30;;;49.30;;
9254;SDS011;4663;49.120;9.730;2023-07-24T08:52:12;53.88;;;50.60;;
9254;SDS011;4663;49.120;9.730;2023-07-24T08:54:38;50.05;;;47.20;;
9254;SDS011;4663;49.120;9.730;2023-07-24T08:57:06;50.35;;;47.30;;
9254;SDS011;4663;49.120;9.730;2023-07-24T08:59:32;50.50;;;47.67;;
9254;SDS011;4663;49.120;9.730;2023-07-24T09:01:59;46.38;;;43.60;;
9254;SDS011;4663;49.120;9.730;2023-07-24T09:04:24;46.70;;;44.03;;
9254;SDS011;4663;49.120;9.730;2023-07-24T09:06:50;46.42;;;43.80;;
9254;SDS011;4663;49.120;9.730;2023-07-24T09:09:19;48.60;;;45.90;;
9254;SDS011;4663;49.120;9.730;2023-07-24T09:11:51;51.83;;;48.85;;
9254;SDS011;4663;49.120;9.730;2023-07-24T09:16:47;49.17;;;46.45;;
9254;SDS011;4663;49.120;9.730;2023-07-24T09:19:19;53.17;;;50.30;;
9254;SDS011;4663;49.120;9.730;2023-07-24T09:21:44;48.53;;;45.60;;
9254;SDS011;4663;49.120;9.730;2023-07-24T09:24:13;51.70;;;48.38;;
9254;SDS011;4663;49.120;9.730;2023-07-24T09:26:46;50.30;;;47.13;;
9254;SDS011;4663;49.120;9.730;2023-07-24T09:29:16;47.95;;;44.97;;
9254;SDS011;4663;49.120;9.730;2023-07-24T09:31:42;49.08;;;46.20;;
9254;SDS011;4663;49.120;9.730;2023-07-24T09:34:15;50.95;;;48.00;;
9254;SDS011;4663;49.120;9.730;2023-07-24T09:36:41;53.70;;;50.45;;
9254;SDS011;4663;49.120;9.730;2023-07-24T09:39:07;54.60;;;51.40;;
9254;SDS011;4663;49.120;9.730;2023-07-24T09:41:35;46.63;;;43.80;;
9254;SDS011;4663;49.120;9.730;2023-07-24T09:44:01;41.67;;;39.08;;
9254;SDS011;4663;49.120;9.730;2023-07-24T09:46:26;37.50;;;35.35;;
9254;SDS011;4663;49.120;9.730;2023-07-24T09:48:53;38.83;;;36.60;;
9254;SDS011;4663;49.120;9.730;2023-07-24T09:51:20;39.60;;;37.17;;
9254;SDS011;4663;49.120;9.730;2023-07-24T09:53:55;41.30;;;38.90;;
9254;SDS011;4663;49.120;9.730;2023-07-24T09:56:25;42.00;;;39.05;;
9254;SDS011;4663;49.120;9.730;2023-07-24T09:58:52;42.50;;;40.15;;
9254;SDS011;4663;49.120;9.730;2023-07-24T10:01:20;46.03;;;43.45;;
9254;SDS011;4663;49.120;9.730;2023-07-24T10:03:48;39.80;;;37.40;;
9254;SDS011;4663;49.120;9.730;2023-07-24T10:06:15;45.33;;;42.63;;
9254;SDS011;4663;49.120;9.730;2023-07-24T10:08:41;40.45;;;37.97;;
9254;SDS011;4663;49.120;9.730;2023-07-24T10:11:11;70.40;;;66.75;;
9254;SDS011;4663;49.120;9.730;2023-07-24T10:13:37;42.63;;;40.20;;
9254;SDS011;4663;49.120;9.730;2023-07-24T10:16:03;40.50;;;38.13;;
9254;SDS011;4663;49.120;9.730;2023-07-24T10:18:32;41.58;;;39.17;;
9254;SDS011;4663;49.120;9.730;2023-07-24T10:21:02;42.33;;;39.95;;
9254;SDS011;4663;49.120;9.730;2023-07-24T10:23:29;39.65;;;37.45;;
9254;SDS011;4663;49.120;9.730;2023-07-24T10:25:55;39.67;;;36.70;;
9254;SDS011;4663;49.120;9.730;2023-07-24T10:28:29;37.97;;;35.80;;
9254;SDS011;4663;49.120;9.730;2023-07-24T10:30:56;43.25;;;40.78;;
9254;SDS011;4663;49.120;9.730;2023-07-24T10:33:24;43.97;;;41.45;;
9254;SDS011;4663;49.120;9.730;2023-07-24T10:35:53;45.53;;;43.03;;
9254;SDS011;4663;49.120;9.730;2023-07-24T10:38:20;38.38;;;36.22;;
9254;SDS011;4663;49.120;9.730;2023-07-24T10:41:01;39.28;;;37.10;;
9254;SDS011;4663;49.120;9.730;2023-07-24T10:43:28;41.88;;;39.60;;
9254;SDS011;4663;49.120;9.730;2023-07-24T10:45:53;41.65;;;39.25;;
9254;SDS011;4663;49.120;9.730;2023-07-24T10:48:20;40.20;;;38.00;;
9254;SDS011;4663;49.120;9.730;2023-07-24T10:50:47;41.58;;;39.20;;
9254;SDS011;4663;49.120;9.730;2023-07-24T10:53:15;42.83;;;40.22;;
9254;SDS011;4663;49.120;9.730;2023-07-24T10:55:42;43.50;;;41.00;;
9254;SDS011;4663;49.120;9.730;2023-07-24T10:58:08;46.38;;;43.83;;
9254;SDS011;4663;49.120;9.730;2023-07-24T11:00:34;41.00;;;38.75;;
9254;SDS011;4663;49.120;9.730;2023-07-24T11:03:00;48.58;;;45.78;;
9254;SDS011;4663;49.120;9.730;2023-07-24T11:05:26;43.13;;;40.72;;
9254;SDS011;4663;49.120;9.730;2023-07-24T11:07:51;42.40;;;39.90;;
9254;SDS011;4663;49.120;9.730;2023-07-24T11:10:21;43.20;;;40.80;;
9254;SDS011;4663;49.120;9.730;2023-07-24T11:12:49;41.17;;;38.78;;
9254;SDS011;4663;49.120;9.730;2023-07-24T11:15:27;38.83;;;36.53;;
9254;SDS011;4663;49.120;9.730;2023-07-24T11:17:53;39.17;;;36.90;;
9254;SDS011;4663;49.120;9.730;2023-07-24T11:20:19;41.42;;;39.00;;
9254;SDS011;4663;49.120;9.730;2023-07-24T11:22:45;46.25;;;43.72;;
9254;SDS011;4663;49.120;9.730;2023-07-24T11:25:11;46.97;;;44.42;;
9254;SDS011;4663;49.120;9.730;2023-07-24T11:27:40;44.38;;;41.75;;
9254;SDS011;4663;49.120;9.730;2023-07-24T11:30:07;43.22;;;40.78;;
9254;SDS011;4663;49.120;9.730;2023-07-24T11:32:34;45.08;;;42.42;;
9254;SDS011;4663;49.120;9.730;2023-07-24T11:34:59;43.55;;;41.10;;
9254;SDS011;4663;49.120;9.730;2023-07-24T11:37:25;39.05;;;36.80;;
9254;SDS011;4663;49.120;9.730;2023-07-24T11:40:00;37.00;;;34.60;;
9254;SDS011;4663;49.120;9.730;2023-07-24T11:42:38;41.95;;;39.30;;
9254;SDS011;4663;49.120;9.730;2023-07-24T11:45:05;44.88;;;42.30;;
9254;SDS011;4663;49.120;9.730;2023-07-24T11:47:40;45.40;;;42.90;;
9254;SDS011;4663;49.120;9.730;2023-07-24T11:50:13;38.00;;;36.00;;
9254;SDS011;4663;49.120;9.730;2023-07-24T11:52:43;41.10;;;38.80;;
9254;SDS011;4663;49.120;9.730;2023-07-24T11:55:13;38.35;;;36.00;;
9254;SDS011;4663;49.120;9.730;2023-07-24T11:57:40;46.38;;;43.88;;
9254;SDS011;4663;49.120;9.730;2023-07-24T12:00:16;51.25;;;48.53;;
9254;SDS011;4663;49.120;9.730;2023-07-24T12:02:43;51.70;;;48.90;;
9254;SDS011;4663;49.120;9.730;2023-07-24T12:05:09;47.88;;;45.33;;
9254;SDS011;4663;49.120;9.730;2023-07-24T12:07:35;50.05;;;47.22;;
9254;SDS011;4663;49.120;9.730;2023-07-24T12:10:02;57.00;;;53.90;;
9254;SDS011;4663;49.120;9.730;2023-07-24T12:15:03;50.78;;;47.97;;
9254;SDS011;4663;49.120;9.730;2023-07-24T12:17:29;41.45;;;38.95;;
9254;SDS011;4663;49.120;9.730;2023-07-24T12:19:54;39.03;;;36.88;;
9254;SDS011;4663;49.120;9.730;2023-07-24T12:22:19;39.22;;;36.95;;
9254;SDS011;4663;49.120;9.730;2023-07-24T12:24:45;38.92;;;36.72;;
9254;SDS011;4663;49.120;9.730;2023-07-24T12:27:10;38.70;;;36.60;;
9254;SDS011;4663;49.120;9.730;2023-07-24T12:29:36;39.63;;;37.53;;
9254;SDS011;4663;49.120;9.730;2023-07-24T12:32:01;38.10;;;36.05;;
9254;SDS011;4663;49.120;9.730;2023-07-24T12:34:26;39.60;;;37.42;;
9254;SDS011;4663;49.120;9.730;2023-07-24T12:36:52;35.83;;;33.80;;
9254;SDS011;4663;49.120;9.730;2023-07-24T12:39:19;37.97;;;35.88;;
9254;SDS011;4663;49.120;9.730;2023-07-24T12:41:45;38.03;;;35.90;;
9254;SDS011;4663;49.120;9.730;2023-07-24T12:44:10;45.88;;;43.38;;
9254;SDS011;4663;49.120;9.730;2023-07-24T12:46:35;37.58;;;35.55;;
9254;SDS011;4663;49.120;9.730;2023-07-24T12:49:01;36.70;;;34.80;;
9254;SDS011;4663;49.120;9.730;2023-07-24T12:51:26;34.40;;;32.60;;
9254;SDS011;4663;49.120;9.730;2023-07-24T12:53:52;33.13;;;31.25;;
9254;SDS011;4663;49.120;9.730;2023-07-24T12:56:17;34.67;;;32.88;;
9254;SDS011;4663;49.120;9.730;2023-07-24T12:58:43;31.80;;;30.10;;
9254;SDS011;4663;49.120;9.730;2023-07-24T13:01:09;29.48;;;27.80;;
9254;SDS011;4663;49.120;9.730;2023-07-24T13:03:34;33.38;;;31.55;;
9254;SDS011;4663;49.120;9.730;2023-07-24T13:06:00;28.42;;;26.90;;
9254;SDS011;4663;49.120;9.730;2023-07-24T13:08:25;25.33;;;23.98;;
9254;SDS011;4663;49.120;9.730;2023-07-24T13:10:51;28.17;;;26.55;;
9254;SDS011;4663;49.120;9.730;2023-07-24T13:13:17;29.55;;;27.98;;
9254;SDS011;4663;49.120;9.730;2023-07-24T13:15:42;29.98;;;28.20;;
9254;SDS011;4663;49.120;9.730;2023-07-24T13:18:08;38.65;;;36.53;;
9254;SDS011;4663;49.120;9.730;2023-07-24T13:20:33;38.58;;;36.58;;
9254;SDS011;4663;49.120;9.730;2023-07-24T13:22:59;37.67;;;35.67;;
9254;SDS011;4663;49.120;9.730;2023-07-24T13:25:24;39.03;;;36.80;;
9254;SDS011;4663;49.120;9.730;2023-07-24T13:27:50;37.47;;;35.47;;
9254;SDS011;4663;49.120;9.730;2023-07-24T13:30:15;45.40;;;43.05;;
9254;SDS011;4663;49.120;9.730;2023-07-24T13:32:41;53.35;;;50.60;;
9254;SDS011;4663;49.120;9.730;2023-07-24T13:35:06;49.22;;;46.63;;
9254;SDS011;4663;49.120;9.730;2023-07-24T13:37:32;40.42;;;38.28;;
9254;SDS011;4663;49.120;9.730;2023-07-24T13:39:57;41.20;;;38.88;;
9254;SDS011;4663;49.120;9.730;2023-07-24T13:42:23;36.92;;;34.95;;
9254;SDS011;4663;49.120;9.730;2023-07-24T13:44:48;39.78;;;37.53;;
9254;SDS011;4663;49.120;9.730;2023-07-24T13:47:14;40.55;;;38.45;;
9254;SDS011;4663;49.120;9.730;2023-07-24T13:49:39;38.10;;;36.08;;
9254;SDS011;4663;49.120;9.730;2023-07-24T13:52:04;43.95;;;41.40;;
9254;SDS011;4663;49.120;9.730;2023-07-24T13:54:30;45.35;;;42.95;;
9254;SDS011;4663;49.120;9.730;2023-07-24T13:56:56;49.22;;;46.63;;
9254;SDS011;4663;49.120;9.730;2023-07-24T13:59:21;46.65;;;44.10;;
9254;SDS011;4663;49.120;9.730;2023-07-24T14:01:47;39.47;;;37.38;;
9254;SDS011;4663;49.120;9.730;2023-07-24T14:04:12;42.50;;;40.05;;
9254;SDS011;4663;49.120;9.730;2023-07-24T14:06:39;46.90;;;44.40;;
9254;SDS011;4663;49.120;9.730;2023-07-24T14:09:04;37.13;;;35.08;;
9254;SDS011;4663;49.120;9.730;2023-07-24T14:11:30;36.42;;;34.38;;
9254;SDS011;4663;49.120;9.730;2023-07-24T14:13:55;41.53;;;39.33;;
9254;SDS011;4663;49.120;9.730;2023-07-24T14:16:20;40.80;;;38.40;;
9254;SDS011;4663;49.120;9.730;2023-07-24T14:18:46;40.10;;;37.90;;
9254;SDS011;4663;49.120;9.730;2023-07-24T14:21:11;43.20;;;41.03;;
9254;SDS011;4663;49.120;9.730;2023-07-24T14:23:37;47.45;;;44.90;;
9254;SDS011;4663;49.120;9.730;2023-07-24T14:26:02;43.30;;;41.00;;
9254;SDS011;4663;49.120;9.730;2023-07-24T14:28:27;44.58;;;41.10;;
9254;SDS011;4663;49.120;9.730;2023-07-24T14:30:53;37.40;;;35.42;;
9254;SDS011;4663;49.120;9.730;2023-07-24T14:33:18;40.78;;;38.67;;
9254;SDS011;4663;49.120;9.730;2023-07-24T14:35:44;35.67;;;33.75;;
9254;SDS011;4663;49.120;9.730;2023-07-24T14:38:09;35.08;;;33.15;;
9254;SDS011;4663;49.120;9.730;2023-07-24T14:40:35;38.60;;;36.45;;
9254;SDS011;4663;49.120;9.730;2023-07-24T14:43:00;32.00;;;30.08;;
9254;SDS011;4663;49.120;9.730;2023-07-24T14:45:25;31.05;;;29.30;;
9254;SDS011;4663;49.120;9.730;2023-07-24T14:47:51;32.83;;;31.05;;
9254;SDS011;4663;49.120;9.730;2023-07-24T14:50:16;34.47;;;32.55;;